SAWJ/ULA METAR and TAF weather

Enter ICAO airport designator
Station Type Date Time Source
SAWJ METAR 2022/05/24 11:35 UTC NOAA

SAWJ 241135Z 25018KT 8000 -SN SCT030 SCT080 M00/M02 Q1002


Station Type Date Time Source
SAWJ Decoded METAR 2022/05/24 11:35 UTC NOAA

San Julian Aerodrome, Argentina (SAWJ) 49-19S 067-45W 62M
May 24, 2022 - 07:35 AM EDT / 2022.05.24 1135 UTC
Wind: from the WSW (250 degrees) at 21 MPH (18 KT):0
Visibility: 4 mile(s):0
Sky conditions: partly cloudy
Weather: light snow
Temperature: 32 F (0 C)
Windchill: 19 F (-7 C):1
Dew Point: 28 F (-2 C)
Relative Humidity: 86%
Pressure (altimeter): 29.59 in. Hg (1002 hPa)
ob: SAWJ 241135Z 25018KT 8000 -SN SCT030 SCT080 M00/M02 Q1002
cycle: 11

Station Type Date Time Source
SAWJ TAF 2014/06/25 12:00 UTC NOAA

TAF SAWJ 251100Z 2512/2612 32025G35KT 9999 -RA BKN030 BKN045 TX06/2518Z TN02/2611Z
BECMG 2518/2520 29020G30KT NSW SCT030
BECMG 2609/2611 23020G30KT SHSN OVC015

Example: see airport list